sensor_id;sensor_type;location;lat;lon;timestamp;pressure;altitude;pressure_sealevel;temperature;humidity
77572;BME280;67214;47.454;18.966;2024-02-21T00:01:15;100984.77;;;6.85;83.67
77572;BME280;67214;47.454;18.966;2024-02-21T00:03:42;100989.05;;;6.87;83.40
77572;BME280;67214;47.454;18.966;2024-02-21T00:06:09;100991.68;;;6.96;82.77
77572;BME280;67214;47.454;18.966;2024-02-21T00:08:35;100981.20;;;6.94;82.06
77572;BME280;67214;47.454;18.966;2024-02-21T00:11:02;100983.20;;;6.98;81.56
77572;BME280;67214;47.454;18.966;2024-02-21T00:13:29;100984.06;;;6.98;81.22
77572;BME280;67214;47.454;18.966;2024-02-21T00:15:55;100975.30;;;6.98;81.19
77572;BME280;67214;47.454;18.966;2024-02-21T00:18:22;100978.10;;;6.95;81.47
77572;BME280;67214;47.454;18.966;2024-02-21T00:20:49;100971.12;;;6.94;81.52
77572;BME280;67214;47.454;18.966;2024-02-21T00:23:16;100973.85;;;6.92;81.60
77572;BME280;67214;47.454;18.966;2024-02-21T00:25:42;100970.72;;;6.93;81.38
77572;BME280;67214;47.454;18.966;2024-02-21T00:28:09;100965.62;;;6.90;81.39
77572;BME280;67214;47.454;18.966;2024-02-21T00:30:36;100969.04;;;6.92;81.09
77572;BME280;67214;47.454;18.966;2024-02-21T00:33:04;100963.31;;;6.84;81.24
77572;BME280;67214;47.454;18.966;2024-02-21T00:35:31;100970.59;;;6.87;81.17
77572;BME280;67214;47.454;18.966;2024-02-21T00:37:57;100963.44;;;6.89;80.64
77572;BME280;67214;47.454;18.966;2024-02-21T00:40:25;100956.16;;;6.86;80.89
77572;BME280;67214;47.454;18.966;2024-02-21T00:42:51;100959.36;;;6.84;81.09
77572;BME280;67214;47.454;18.966;2024-02-21T00:45:18;100952.45;;;6.81;80.73
77572;BME280;67214;47.454;18.966;2024-02-21T00:47:45;100939.44;;;6.78;80.96
77572;BME280;67214;47.454;18.966;2024-02-21T00:50:12;100948.59;;;6.80;80.67
77572;BME280;67214;47.454;18.966;2024-02-21T00:52:39;100955.08;;;6.81;80.39
77572;BME280;67214;47.454;18.966;2024-02-21T00:55:06;100954.22;;;6.81;80.29
77572;BME280;67214;47.454;18.966;2024-02-21T00:57:33;100940.45;;;6.76;80.42
77572;BME280;67214;47.454;18.966;2024-02-21T00:59:59;100951.07;;;6.74;80.49
77572;BME280;67214;47.454;18.966;2024-02-21T01:02:26;100949.69;;;6.76;80.47
77572;BME280;67214;47.454;18.966;2024-02-21T01:04:53;100949.52;;;6.70;80.67
77572;BME280;67214;47.454;18.966;2024-02-21T01:07:20;100946.72;;;6.73;80.39
77572;BME280;67214;47.454;18.966;2024-02-21T01:09:46;100944.25;;;6.70;80.17
77572;BME280;67214;47.454;18.966;2024-02-21T01:12:13;100939.67;;;6.74;79.84
77572;BME280;67214;47.454;18.966;2024-02-21T01:14:40;100937.59;;;6.72;80.13
77572;BME280;67214;47.454;18.966;2024-02-21T01:17:06;100944.09;;;6.73;80.19
77572;BME280;67214;47.454;18.966;2024-02-21T01:19:33;100946.95;;;6.69;79.94
77572;BME280;67214;47.454;18.966;2024-02-21T01:22:00;100944.88;;;6.67;80.28
77572;BME280;67214;47.454;18.966;2024-02-21T01:24:27;100942.77;;;6.65;80.21
77572;BME280;67214;47.454;18.966;2024-02-21T01:26:53;100939.61;;;6.67;79.96
77572;BME280;67214;47.454;18.966;2024-02-21T01:29:20;100940.14;;;6.65;80.38
77572;BME280;67214;47.454;18.966;2024-02-21T01:31:47;100942.25;;;6.58;80.62
77572;BME280;67214;47.454;18.966;2024-02-21T01:34:13;100939.22;;;6.57;80.60
77572;BME280;67214;47.454;18.966;2024-02-21T01:36:40;100943.50;;;6.60;80.48
77572;BME280;67214;47.454;18.966;2024-02-21T01:39:07;100938.76;;;6.58;80.74
77572;BME280;67214;47.454;18.966;2024-02-21T01:41:34;100939.38;;;6.63;80.60
77572;BME280;67214;47.454;18.966;2024-02-21T01:44:01;100942.95;;;6.53;81.27
77572;BME280;67214;47.454;18.966;2024-02-21T01:46:27;100937.38;;;6.50;81.31
77572;BME280;67214;47.454;18.966;2024-02-21T01:48:56;100936.00;;;6.52;81.36
77572;BME280;67214;47.454;18.966;2024-02-21T01:51:24;100942.42;;;6.46;81.83
77572;BME280;67214;47.454;18.966;2024-02-21T01:53:51;100935.67;;;6.41;82.01
77572;BME280;67214;47.454;18.966;2024-02-21T01:56:19;100943.27;;;6.47;81.78
77572;BME280;67214;47.454;18.966;2024-02-21T01:58:46;100925.75;;;6.46;81.93
77572;BME280;67214;47.454;18.966;2024-02-21T02:01:14;100934.19;;;6.44;82.04
77572;BME280;67214;47.454;18.966;2024-02-21T02:03:42;100930.00;;;6.40;82.43
77572;BME280;67214;47.454;18.966;2024-02-21T02:06:09;100916.93;;;6.38;82.44
77572;BME280;67214;47.454;18.966;2024-02-21T02:08:35;100923.52;;;6.38;82.21
77572;BME280;67214;47.454;18.966;2024-02-21T02:11:03;100928.63;;;6.33;82.49
77572;BME280;67214;47.454;18.966;2024-02-21T02:13:30;100919.10;;;6.30;82.49
77572;BME280;67214;47.454;18.966;2024-02-21T02:15:56;100924.83;;;6.30;82.52
77572;BME280;67214;47.454;18.966;2024-02-21T02:18:23;100914.30;;;6.38;81.61
77572;BME280;67214;47.454;18.966;2024-02-21T02:20:50;100918.64;;;6.48;80.77
77572;BME280;67214;47.454;18.966;2024-02-21T02:23:31;100928.45;;;6.44;80.65
77572;BME280;67214;47.454;18.966;2024-02-21T02:25:55;100936.30;;;6.54;80.08
77572;BME280;67214;47.454;18.966;2024-02-21T02:28:22;100928.45;;;6.53;79.96
77572;BME280;67214;47.454;18.966;2024-02-21T02:30:49;100926.38;;;6.51;80.02
77572;BME280;67214;47.454;18.966;2024-02-21T02:33:16;100929.01;;;6.60;79.62
77572;BME280;67214;47.454;18.966;2024-02-21T02:35:45;100926.28;;;6.52;79.83
77572;BME280;67214;47.454;18.966;2024-02-21T02:38:12;100929.23;;;6.64;79.12
77572;BME280;67214;47.454;18.966;2024-02-21T02:40:39;100927.30;;;6.59;79.54
77572;BME280;67214;47.454;18.966;2024-02-21T02:43:09;100932.56;;;6.59;79.24
77572;BME280;67214;47.454;18.966;2024-02-21T02:45:36;100919.45;;;6.57;79.40
77572;BME280;67214;47.454;18.966;2024-02-21T02:48:03;100925.98;;;6.59;79.32
77572;BME280;67214;47.454;18.966;2024-02-21T02:50:30;100920.09;;;6.53;79.47
77572;BME280;67214;47.454;18.966;2024-02-21T02:52:56;100923.91;;;6.48;79.69
77572;BME280;67214;47.454;18.966;2024-02-21T02:55:23;100917.23;;;6.41;80.15
77572;BME280;67214;47.454;18.966;2024-02-21T02:57:51;100920.09;;;6.45;79.93
77572;BME280;67214;47.454;18.966;2024-02-21T03:00:18;100926.55;;;6.39;80.38
77572;BME280;67214;47.454;18.966;2024-02-21T03:02:46;100920.02;;;6.38;80.42
77572;BME280;67214;47.454;18.966;2024-02-21T03:05:14;100929.25;;;6.38;80.50
77572;BME280;67214;47.454;18.966;2024-02-21T03:07:41;100929.94;;;6.33;80.61
77572;BME280;67214;47.454;18.966;2024-02-21T03:10:08;100929.47;;;6.33;80.65
77572;BME280;67214;47.454;18.966;2024-02-21T03:12:35;100920.95;;;6.37;80.56
77572;BME280;67214;47.454;18.966;2024-02-21T03:15:02;100916.38;;;6.32;80.77
77572;BME280;67214;47.454;18.966;2024-02-21T03:17:29;100920.88;;;6.38;80.61
77572;BME280;67214;47.454;18.966;2024-02-21T03:19:55;100924.73;;;6.40;80.64
77572;BME280;67214;47.454;18.966;2024-02-21T03:22:22;100922.89;;;6.33;80.78
77572;BME280;67214;47.454;18.966;2024-02-21T03:24:49;100927.07;;;6.29;81.01
77572;BME280;67214;47.454;18.966;2024-02-21T03:27:16;100932.27;;;6.22;81.29
77572;BME280;67214;47.454;18.966;2024-02-21T03:29:42;100929.70;;;6.20;81.46
77572;BME280;67214;47.454;18.966;2024-02-21T03:32:09;100936.51;;;6.16;81.87
77572;BME280;67214;47.454;18.966;2024-02-21T03:34:36;100935.91;;;6.11;82.04
77572;BME280;67214;47.454;18.966;2024-02-21T03:37:03;100934.89;;;6.13;82.10
77572;BME280;67214;47.454;18.966;2024-02-21T03:39:32;100940.95;;;6.15;81.94
77572;BME280;67214;47.454;18.966;2024-02-21T03:41:59;100948.73;;;5.99;82.59
77572;BME280;67214;47.454;18.966;2024-02-21T03:44:27;100947.33;;;5.92;83.02
77572;BME280;67214;47.454;18.966;2024-02-21T03:46:54;100938.05;;;5.94;82.80
77572;BME280;67214;47.454;18.966;2024-02-21T03:49:21;100951.83;;;5.90;82.83
77572;BME280;67214;47.454;18.966;2024-02-21T03:51:48;100950.13;;;5.89;82.85
77572;BME280;67214;47.454;18.966;2024-02-21T03:54:14;100951.32;;;5.82;83.20
77572;BME280;67214;47.454;18.966;2024-02-21T03:56:41;100951.91;;;5.79;83.37
77572;BME280;67214;47.454;18.966;2024-02-21T03:59:08;100954.17;;;5.78;83.46
77572;BME280;67214;47.454;18.966;2024-02-21T04:01:35;100954.17;;;5.78;83.51
77572;BME280;67214;47.454;18.966;2024-02-21T04:04:02;100956.86;;;5.76;83.67
77572;BME280;67214;47.454;18.966;2024-02-21T04:06:28;100946.47;;;5.65;84.23
77572;BME280;67214;47.454;18.966;2024-02-21T04:08:55;100953.56;;;5.62;84.49
77572;BME280;67214;47.454;18.966;2024-02-21T04:11:22;100957.14;;;5.61;84.67
77572;BME280;67214;47.454;18.966;2024-02-21T04:13:49;100962.28;;;5.54;84.90
77572;BME280;67214;47.454;18.966;2024-02-21T04:16:17;100963.59;;;5.54;84.98
77572;BME280;67214;47.454;18.966;2024-02-21T04:18:44;100967.91;;;5.47;85.29
77572;BME280;67214;47.454;18.966;2024-02-21T04:21:13;100966.23;;;5.36;85.53
77572;BME280;67214;47.454;18.966;2024-02-21T04:23:39;100955.32;;;5.35;85.95
77572;BME280;67214;47.454;18.966;2024-02-21T04:26:05;100962.05;;;5.32;86.12
77572;BME280;67214;47.454;18.966;2024-02-21T04:28:32;100951.92;;;5.33;86.29
77572;BME280;67214;47.454;18.966;2024-02-21T04:30:59;100948.25;;;5.27;86.38
77572;BME280;67214;47.454;18.966;2024-02-21T04:33:26;100944.05;;;5.23;86.56
77572;BME280;67214;47.454;18.966;2024-02-21T04:35:52;100950.88;;;5.08;87.30
77572;BME280;67214;47.454;18.966;2024-02-21T04:38:20;100944.71;;;4.99;87.72
77572;BME280;67214;47.454;18.966;2024-02-21T04:40:47;100944.52;;;4.93;88.02
77572;BME280;67214;47.454;18.966;2024-02-21T04:43:14;100946.06;;;4.89;88.22
77572;BME280;67214;47.454;18.966;2024-02-21T04:45:41;100954.91;;;4.86;88.77
77572;BME280;67214;47.454;18.966;2024-02-21T04:48:08;100951.31;;;4.89;88.71
77572;BME280;67214;47.454;18.966;2024-02-21T04:50:34;100950.86;;;4.79;88.80
77572;BME280;67214;47.454;18.966;2024-02-21T04:53:01;100944.48;;;4.75;88.92
77572;BME280;67214;47.454;18.966;2024-02-21T04:55:28;100942.91;;;4.71;89.14
77572;BME280;67214;47.454;18.966;2024-02-21T04:57:54;100941.39;;;4.65;89.66
77572;BME280;67214;47.454;18.966;2024-02-21T05:00:21;100912.70;;;4.71;89.55
77572;BME280;67214;47.454;18.966;2024-02-21T05:02:48;100931.29;;;4.66;89.82
77572;BME280;67214;47.454;18.966;2024-02-21T05:05:15;100928.86;;;4.61;89.96
77572;BME280;67214;47.454;18.966;2024-02-21T05:07:42;100932.34;;;4.62;90.11
77572;BME280;67214;47.454;18.966;2024-02-21T05:10:09;100935.17;;;4.57;90.43
77572;BME280;67214;47.454;18.966;2024-02-21T05:12:36;100937.02;;;4.55;90.60
77572;BME280;67214;47.454;18.966;2024-02-21T05:15:03;100938.19;;;4.48;90.82
77572;BME280;67214;47.454;18.966;2024-02-21T05:17:30;100946.61;;;4.46;91.05
77572;BME280;67214;47.454;18.966;2024-02-21T05:19:57;100918.72;;;4.44;91.18
77572;BME280;67214;47.454;18.966;2024-02-21T05:22:23;100928.99;;;4.48;91.13
77572;BME280;67214;47.454;18.966;2024-02-21T05:24:50;100922.56;;;4.45;91.11
77572;BME280;67214;47.454;18.966;2024-02-21T05:27:17;100917.86;;;4.43;90.93
77572;BME280;67214;47.454;18.966;2024-02-21T05:29:44;100921.97;;;4.49;91.15
77572;BME280;67214;47.454;18.966;2024-02-21T05:32:10;100921.60;;;4.48;91.04
77572;BME280;67214;47.454;18.966;2024-02-21T05:34:37;100942.78;;;4.53;90.97
77572;BME280;67214;47.454;18.966;2024-02-21T05:37:04;100941.16;;;4.51;91.16
77572;BME280;67214;47.454;18.966;2024-02-21T05:39:31;100950.14;;;4.45;91.15
77572;BME280;67214;47.454;18.966;2024-02-21T05:41:57;100950.80;;;4.50;91.27
77572;BME280;67214;47.454;18.966;2024-02-21T05:44:24;100944.55;;;4.53;90.82
77572;BME280;67214;47.454;18.966;2024-02-21T05:46:52;100935.88;;;4.61;90.83
77572;BME280;67214;47.454;18.966;2024-02-21T05:49:21;100956.46;;;4.51;90.27
77572;BME280;67214;47.454;18.966;2024-02-21T05:51:47;100955.22;;;4.40;90.66
77572;BME280;67214;47.454;18.966;2024-02-21T05:54:15;100954.98;;;4.44;91.00
77572;BME280;67214;47.454;18.966;2024-02-21T05:56:44;100955.33;;;4.27;91.08
77572;BME280;67214;47.454;18.966;2024-02-21T05:59:11;100960.45;;;4.19;91.53
77572;BME280;67214;47.454;18.966;2024-02-21T06:01:38;100958.87;;;4.15;92.14
77572;BME280;67214;47.454;18.966;2024-02-21T06:04:05;100953.94;;;4.18;92.32
77572;BME280;67214;47.454;18.966;2024-02-21T06:06:31;100964.94;;;4.16;92.60
77572;BME280;67214;47.454;18.966;2024-02-21T06:08:59;100957.15;;;4.25;92.42
77572;BME280;67214;47.454;18.966;2024-02-21T06:11:27;100957.28;;;4.21;92.34
77572;BME280;67214;47.454;18.966;2024-02-21T06:13:54;100957.87;;;4.28;92.42
77572;BME280;67214;47.454;18.966;2024-02-21T06:16:21;100960.97;;;4.38;92.00
77572;BME280;67214;47.454;18.966;2024-02-21T06:18:48;100964.32;;;4.41;91.86
77572;BME280;67214;47.454;18.966;2024-02-21T06:21:15;100960.05;;;4.49;91.60
77572;BME280;67214;47.454;18.966;2024-02-21T06:23:42;100953.94;;;4.79;90.44
77572;BME280;67214;47.454;18.966;2024-02-21T06:26:09;100956.05;;;4.81;90.23
77572;BME280;67214;47.454;18.966;2024-02-21T06:28:35;100952.54;;;4.90;89.81
77572;BME280;67214;47.454;18.966;2024-02-21T06:31:02;100963.56;;;4.98;89.47
77572;BME280;67214;47.454;18.966;2024-02-21T06:33:30;100963.02;;;5.10;88.78
77572;BME280;67214;47.454;18.966;2024-02-21T06:35:57;100965.89;;;5.14;88.39
77572;BME280;67214;47.454;18.966;2024-02-21T06:38:24;100946.77;;;5.21;88.21
77572;BME280;67214;47.454;18.966;2024-02-21T06:40:50;100964.02;;;5.27;87.78
77572;BME280;67214;47.454;18.966;2024-02-21T06:43:18;100965.42;;;5.44;87.14
77572;BME280;67214;47.454;18.966;2024-02-21T06:45:45;100965.16;;;5.50;86.65
77572;BME280;67214;47.454;18.966;2024-02-21T06:48:14;100970.17;;;5.54;86.67
77572;BME280;67214;47.454;18.966;2024-02-21T06:50:40;100968.83;;;5.65;86.09
77572;BME280;67214;47.454;18.966;2024-02-21T06:53:07;100971.52;;;5.82;85.28
77572;BME280;67214;47.454;18.966;2024-02-21T06:55:34;100978.86;;;5.84;84.97
77572;BME280;67214;47.454;18.966;2024-02-21T06:58:00;100981.16;;;5.91;84.38
77572;BME280;67214;47.454;18.966;2024-02-21T07:00:32;100985.70;;;6.06;84.06
77572;BME280;67214;47.454;18.966;2024-02-21T07:02:55;100972.53;;;6.06;83.68
77572;BME280;67214;47.454;18.966;2024-02-21T07:05:22;100972.45;;;6.17;83.42
77572;BME280;67214;47.454;18.966;2024-02-21T07:07:49;100983.78;;;6.19;83.60
77572;BME280;67214;47.454;18.966;2024-02-21T07:10:15;100972.48;;;6.34;83.50
77572;BME280;67214;47.454;18.966;2024-02-21T07:12:42;100980.23;;;6.45;83.02
77572;BME280;67214;47.454;18.966;2024-02-21T07:15:09;100988.47;;;6.48;82.13
77572;BME280;67214;47.454;18.966;2024-02-21T07:17:36;100994.95;;;6.58;82.09
77572;BME280;67214;47.454;18.966;2024-02-21T07:20:03;100993.02;;;6.70;81.63
77572;BME280;67214;47.454;18.966;2024-02-21T07:22:30;101002.70;;;6.78;81.38
77572;BME280;67214;47.454;18.966;2024-02-21T07:24:56;100997.59;;;6.84;80.71
77572;BME280;67214;47.454;18.966;2024-02-21T07:27:23;100995.18;;;6.88;80.59
77572;BME280;67214;47.454;18.966;2024-02-21T07:29:52;100999.03;;;6.98;80.41
77572;BME280;67214;47.454;18.966;2024-02-21T07:32:18;100994.20;;;7.06;79.93
77572;BME280;67214;47.454;18.966;2024-02-21T07:34:45;100995.64;;;6.96;79.58
77572;BME280;67214;47.454;18.966;2024-02-21T07:37:12;101001.59;;;6.99;79.73
77572;BME280;67214;47.454;18.966;2024-02-21T07:39:38;100994.83;;;7.03;79.22
77572;BME280;67214;47.454;18.966;2024-02-21T07:42:05;100991.89;;;7.09;79.21
77572;BME280;67214;47.454;18.966;2024-02-21T07:44:32;100989.53;;;7.20;78.83
77572;BME280;67214;47.454;18.966;2024-02-21T07:47:00;100988.88;;;7.32;77.49
77572;BME280;67214;47.454;18.966;2024-02-21T07:49:26;100996.31;;;7.57;77.33
77572;BME280;67214;47.454;18.966;2024-02-21T07:51:53;100997.31;;;7.54;76.32
77572;BME280;67214;47.454;18.966;2024-02-21T07:54:20;100996.96;;;7.69;76.28
77572;BME280;67214;47.454;18.966;2024-02-21T07:56:47;100998.78;;;7.75;76.21
77572;BME280;67214;47.454;18.966;2024-02-21T07:59:13;100998.31;;;7.91;75.77
77572;BME280;67214;47.454;18.966;2024-02-21T08:01:40;100993.58;;;8.05;74.86
77572;BME280;67214;47.454;18.966;2024-02-21T08:04:07;100994.59;;;7.87;74.90
77572;BME280;67214;47.454;18.966;2024-02-21T08:06:34;100996.91;;;7.93;75.64
77572;BME280;67214;47.454;18.966;2024-02-21T08:09:00;100987.42;;;7.82;75.13
77572;BME280;67214;47.454;18.966;2024-02-21T08:11:28;100984.58;;;7.78;75.61
77572;BME280;67214;47.454;18.966;2024-02-21T08:13:54;100983.12;;;7.72;75.44
77572;BME280;67214;47.454;18.966;2024-02-21T08:16:21;100978.30;;;7.72;75.48
77572;BME280;67214;47.454;18.966;2024-02-21T08:18:48;100970.98;;;7.61;75.86
77572;BME280;67214;47.454;18.966;2024-02-21T08:21:14;100966.67;;;7.52;76.54
77572;BME280;67214;47.454;18.966;2024-02-21T08:23:42;100967.99;;;7.67;75.90
77572;BME280;67214;47.454;18.966;2024-02-21T08:26:09;100970.41;;;7.79;75.43
77572;BME280;67214;47.454;18.966;2024-02-21T08:28:35;100973.17;;;8.00;74.28
77572;BME280;67214;47.454;18.966;2024-02-21T08:31:02;100965.14;;;8.40;73.22
77572;BME280;67214;47.454;18.966;2024-02-21T08:33:29;100970.77;;;8.57;72.34
77572;BME280;67214;47.454;18.966;2024-02-21T08:35:56;100978.81;;;8.62;71.43
77572;BME280;67214;47.454;18.966;2024-02-21T08:38:23;100979.87;;;8.81;71.31
77572;BME280;67214;47.454;18.966;2024-02-21T08:40:50;100973.73;;;8.80;70.97
77572;BME280;67214;47.454;18.966;2024-02-21T08:43:17;100977.16;;;8.90;70.83
77572;BME280;67214;47.454;18.966;2024-02-21T08:45:44;100974.53;;;9.11;70.16
77572;BME280;67214;47.454;18.966;2024-02-21T08:48:10;100979.81;;;9.53;69.74
77572;BME280;67214;47.454;18.966;2024-02-21T08:50:37;100977.94;;;9.41;68.75
77572;BME280;67214;47.454;18.966;2024-02-21T08:53:04;100976.03;;;9.22;68.67
77572;BME280;67214;47.454;18.966;2024-02-21T08:55:31;100978.00;;;8.97;69.48
77572;BME280;67214;47.454;18.966;2024-02-21T08:57:57;100972.44;;;9.02;69.80
77572;BME280;67214;47.454;18.966;2024-02-21T09:00:24;100969.80;;;8.88;69.94
77572;BME280;67214;47.454;18.966;2024-02-21T09:02:52;100970.07;;;8.83;70.07
77572;BME280;67214;47.454;18.966;2024-02-21T09:05:21;100980.30;;;9.10;69.54
77572;BME280;67214;47.454;18.966;2024-02-21T09:07:48;100974.36;;;9.21;68.84
77572;BME280;67214;47.454;18.966;2024-02-21T09:10:15;100971.50;;;9.10;68.62
77572;BME280;67214;47.454;18.966;2024-02-21T09:12:41;100968.38;;;9.17;68.76
77572;BME280;67214;47.454;18.966;2024-02-21T09:15:09;100968.30;;;9.19;69.14
77572;BME280;67214;47.454;18.966;2024-02-21T09:17:36;100956.97;;;9.17;68.60
77572;BME280;67214;47.454;18.966;2024-02-21T09:20:05;100950.05;;;9.14;68.35
77572;BME280;67214;47.454;18.966;2024-02-21T09:22:33;100956.84;;;9.40;67.14
77572;BME280;67214;47.454;18.966;2024-02-21T09:25:01;100957.38;;;9.59;66.67
77572;BME280;67214;47.454;18.966;2024-02-21T09:27:29;100959.86;;;9.89;66.56
77572;BME280;67214;47.454;18.966;2024-02-21T09:29:55;100962.95;;;9.95;65.32
77572;BME280;67214;47.454;18.966;2024-02-21T09:32:22;100951.75;;;10.31;65.68
77572;BME280;67214;47.454;18.966;2024-02-21T09:34:49;100951.53;;;10.21;64.79
77572;BME280;67214;47.454;18.966;2024-02-21T09:37:15;100952.88;;;10.14;64.47
77572;BME280;67214;47.454;18.966;2024-02-21T09:39:42;100950.34;;;10.33;64.36
77572;BME280;67214;47.454;18.966;2024-02-21T09:42:10;100958.05;;;10.23;62.86
77572;BME280;67214;47.454;18.966;2024-02-21T09:44:37;100971.08;;;10.06;62.97
77572;BME280;67214;47.454;18.966;2024-02-21T09:47:09;100969.92;;;10.03;63.07
77572;BME280;67214;47.454;18.966;2024-02-21T09:49:33;100951.20;;;9.99;63.68
77572;BME280;67214;47.454;18.966;2024-02-21T09:52:02;100966.08;;;10.02;63.50
77572;BME280;67214;47.454;18.966;2024-02-21T09:54:30;100963.94;;;10.14;63.06
77572;BME280;67214;47.454;18.966;2024-02-21T09:56:57;100961.38;;;10.12;64.12
77572;BME280;67214;47.454;18.966;2024-02-21T09:59:24;100956.11;;;10.05;63.15
77572;BME280;67214;47.454;18.966;2024-02-21T10:01:51;100962.61;;;10.21;63.46
77572;BME280;67214;47.454;18.966;2024-02-21T10:04:19;100950.94;;;10.23;63.65
77572;BME280;67214;47.454;18.966;2024-02-21T10:06:46;100943.28;;;10.26;63.56
77572;BME280;67214;47.454;18.966;2024-02-21T10:09:22;100952.47;;;10.40;62.52
77572;BME280;67214;47.454;18.966;2024-02-21T10:11:50;100946.81;;;10.39;62.51
77572;BME280;67214;47.454;18.966;2024-02-21T10:14:17;100946.28;;;10.27;62.01
77572;BME280;67214;47.454;18.966;2024-02-21T10:16:47;100948.92;;;10.34;62.50
77572;BME280;67214;47.454;18.966;2024-02-21T10:19:18;100943.23;;;10.33;62.58
77572;BME280;67214;47.454;18.966;2024-02-21T10:22:07;100941.70;;;10.36;61.92
77572;BME280;67214;47.454;18.966;2024-02-21T10:24:13;100936.44;;;10.29;61.48
77572;BME280;67214;47.454;18.966;2024-02-21T10:26:40;100940.97;;;10.34;61.58
77572;BME280;67214;47.454;18.966;2024-02-21T10:29:07;100931.17;;;10.42;61.19
77572;BME280;67214;47.454;18.966;2024-02-21T10:31:35;100944.90;;;10.41;61.27
77572;BME280;67214;47.454;18.966;2024-02-21T10:34:02;100927.75;;;10.40;60.18
77572;BME280;67214;47.454;18.966;2024-02-21T10:36:29;100928.25;;;10.52;60.48
77572;BME280;67214;47.454;18.966;2024-02-21T10:38:55;100929.75;;;10.43;60.86
77572;BME280;67214;47.454;18.966;2024-02-21T10:41:23;100921.03;;;10.41;61.10
77572;BME280;67214;47.454;18.966;2024-02-21T10:43:55;100918.02;;;10.53;60.79
77572;BME280;67214;47.454;18.966;2024-02-21T10:46:20;100909.84;;;10.56;60.64
77572;BME280;67214;47.454;18.966;2024-02-21T10:48:47;100902.92;;;10.28;60.93
77572;BME280;67214;47.454;18.966;2024-02-21T10:51:16;100898.28;;;10.44;60.15
77572;BME280;67214;47.454;18.966;2024-02-21T10:58:45;100876.78;;;11.41;57.85
77572;BME280;67214;47.454;18.966;2024-02-21T11:01:12;100883.22;;;11.81;56.91
77572;BME280;67214;47.454;18.966;2024-02-21T11:03:44;100876.23;;;11.91;56.38
77572;BME280;67214;47.454;18.966;2024-02-21T11:06:11;100873.28;;;12.52;55.16
77572;BME280;67214;47.454;18.966;2024-02-21T11:08:39;100866.95;;;12.26;54.97
77572;BME280;67214;47.454;18.966;2024-02-21T11:11:06;100860.10;;;12.45;53.82
77572;BME280;67214;47.454;18.966;2024-02-21T11:13:35;100855.39;;;12.49;54.02
77572;BME280;67214;47.454;18.966;2024-02-21T11:16:06;100849.48;;;12.73;53.46
77572;BME280;67214;47.454;18.966;2024-02-21T11:18:33;100843.55;;;12.64;54.15
77572;BME280;67214;47.454;18.966;2024-02-21T11:21:00;100840.16;;;12.56;53.69
77572;BME280;67214;47.454;18.966;2024-02-21T11:23:27;100837.86;;;12.80;52.63
77572;BME280;67214;47.454;18.966;2024-02-21T11:26:03;100825.42;;;12.75;53.52
77572;BME280;67214;47.454;18.966;2024-02-21T11:28:25;100837.25;;;12.43;52.89
77572;BME280;67214;47.454;18.966;2024-02-21T11:30:52;100837.25;;;12.43;53.43
77572;BME280;67214;47.454;18.966;2024-02-21T11:33:20;100837.91;;;12.17;53.19
77572;BME280;67214;47.454;18.966;2024-02-21T11:35:49;100828.12;;;11.77;54.13
77572;BME280;67214;47.454;18.966;2024-02-21T11:38:18;100832.58;;;11.58;54.87
77572;BME280;67214;47.454;18.966;2024-02-21T11:40:46;100815.40;;;11.51;55.82
77572;BME280;67214;47.454;18.966;2024-02-21T11:43:13;100820.42;;;11.67;55.50
77572;BME280;67214;47.454;18.966;2024-02-21T11:45:41;100825.21;;;11.56;55.92
77572;BME280;67214;47.454;18.966;2024-02-21T11:48:08;100823.31;;;11.64;56.20
77572;BME280;67214;47.454;18.966;2024-02-21T11:50:35;100818.72;;;11.42;55.67
77572;BME280;67214;47.454;18.966;2024-02-21T11:53:02;100819.96;;;11.49;56.24
77572;BME280;67214;47.454;18.966;2024-02-21T11:55:29;100816.56;;;11.65;55.45
77572;BME280;67214;47.454;18.966;2024-02-21T11:57:55;100804.87;;;11.44;54.77
77572;BME280;67214;47.454;18.966;2024-02-21T12:00:23;100810.60;;;11.56;54.80
77572;BME280;67214;47.454;18.966;2024-02-21T12:02:52;100805.59;;;11.46;54.63
77572;BME280;67214;47.454;18.966;2024-02-21T12:05:21;100804.81;;;11.57;53.97
77572;BME280;67214;47.454;18.966;2024-02-21T12:07:47;100792.34;;;11.76;54.33
77572;BME280;67214;47.454;18.966;2024-02-21T12:10:14;100792.80;;;12.04;53.10
77572;BME280;67214;47.454;18.966;2024-02-21T12:12:41;100789.13;;;12.46;51.91
77572;BME280;67214;47.454;18.966;2024-02-21T12:15:08;100797.06;;;12.24;52.26
77572;BME280;67214;47.454;18.966;2024-02-21T12:17:35;100793.69;;;12.22;52.24
77572;BME280;67214;47.454;18.966;2024-02-21T12:20:02;100790.90;;;12.18;52.78
77572;BME280;67214;47.454;18.966;2024-02-21T12:22:37;100789.13;;;12.46;51.66
77572;BME280;67214;47.454;18.966;2024-02-21T12:25:04;100785.01;;;12.42;50.13
77572;BME280;67214;47.454;18.966;2024-02-21T12:27:33;100779.91;;;12.22;50.78
77572;BME280;67214;47.454;18.966;2024-02-21T12:30:00;100781.42;;;12.02;51.17
77572;BME280;67214;47.454;18.966;2024-02-21T12:32:28;100777.94;;;12.02;51.00
77572;BME280;67214;47.454;18.966;2024-02-21T12:34:54;100780.70;;;12.00;51.22
77572;BME280;67214;47.454;18.966;2024-02-21T12:37:22;100780.36;;;12.05;50.98
77572;BME280;67214;47.454;18.966;2024-02-21T12:39:48;100773.74;;;12.22;50.92
77572;BME280;67214;47.454;18.966;2024-02-21T12:42:15;100771.69;;;12.47;50.23
77572;BME280;67214;47.454;18.966;2024-02-21T12:44:43;100762.03;;;13.34;48.87
77572;BME280;67214;47.454;18.966;2024-02-21T12:47:10;100765.05;;;13.67;47.31
77572;BME280;67214;47.454;18.966;2024-02-21T12:49:37;100759.08;;;13.74;47.30
77572;BME280;67214;47.454;18.966;2024-02-21T12:52:04;100750.19;;;13.85;46.91